createdAt,value
2023-02-06T00:01:56.024Z,32.22
2023-02-06T00:04:22.897Z,28.10
2023-02-06T00:06:49.782Z,23.00
2023-02-06T00:09:17.155Z,23.60
2023-02-06T00:11:44.077Z,20.95
2023-02-06T00:14:10.950Z,20.20
2023-02-06T00:16:37.854Z,21.45
2023-02-06T00:19:04.842Z,20.95
2023-02-06T00:21:31.857Z,16.63
2023-02-06T00:24:00.514Z,20.08
2023-02-06T00:26:27.596Z,16.48
2023-02-06T00:28:54.446Z,16.13
2023-02-06T00:31:22.186Z,17.85
2023-02-06T00:33:49.481Z,19.48
2023-02-06T00:36:16.374Z,18.92
2023-02-06T00:38:43.293Z,20.77
2023-02-06T00:41:10.178Z,21.80
2023-02-06T00:43:37.733Z,19.45
2023-02-06T00:46:05.036Z,18.98
2023-02-06T00:48:31.934Z,14.80
2023-02-06T00:50:58.722Z,17.90
2023-02-06T00:53:25.747Z,17.40
2023-02-06T00:55:52.710Z,17.67
2023-02-06T00:58:19.531Z,16.65
2023-02-06T01:00:46.394Z,18.50
2023-02-06T01:03:13.203Z,19.88
2023-02-06T01:05:40.183Z,14.93
2023-02-06T01:08:07.171Z,16.63
2023-02-06T01:10:34.266Z,15.50
2023-02-06T01:13:01.219Z,19.83
2023-02-06T01:15:28.815Z,14.13
2023-02-06T01:17:55.874Z,20.08
2023-02-06T01:20:23.955Z,18.13
2023-02-06T01:22:51.420Z,17.98
2023-02-06T01:25:18.325Z,17.30
2023-02-06T01:27:45.245Z,17.65
2023-02-06T01:30:12.725Z,15.85
2023-02-06T01:32:40.826Z,16.02
2023-02-06T01:35:09.850Z,15.13
2023-02-06T01:37:37.590Z,14.90
2023-02-06T01:40:10.112Z,15.45
2023-02-06T01:42:37.997Z,13.38
2023-02-06T01:45:26.005Z,14.77
2023-02-06T01:47:59.196Z,12.70
2023-02-06T01:50:26.266Z,11.85
2023-02-06T01:52:53.121Z,14.82
2023-02-06T01:55:20.603Z,12.38
2023-02-06T01:57:47.550Z,13.60
2023-02-06T02:00:14.622Z,13.68
2023-02-06T02:02:48.502Z,13.75
2023-02-06T02:05:17.641Z,12.00
2023-02-06T02:08:14.921Z,12.27
2023-02-06T02:10:41.804Z,15.10
2023-02-06T02:13:09.523Z,14.15
2023-02-06T02:16:18.546Z,13.80
2023-02-06T02:19:12.813Z,14.73
2023-02-06T02:22:03.992Z,8.88
2023-02-06T02:24:42.707Z,15.05
2023-02-06T02:27:28.262Z,11.10
2023-02-06T02:30:01.186Z,10.45
2023-02-06T02:35:34.408Z,11.82
2023-02-06T02:38:26.339Z,10.25
2023-02-06T02:41:25.826Z,13.88
2023-02-06T02:44:07.200Z,11.98
2023-02-06T02:46:46.534Z,12.57
2023-02-06T02:49:25.102Z,10.85
2023-02-06T02:51:52.653Z,13.93
2023-02-06T02:54:19.851Z,13.32
2023-02-06T02:56:46.837Z,12.77
2023-02-06T02:59:23.971Z,29.73
2023-02-06T03:02:01.274Z,14.43
2023-02-06T03:04:35.197Z,17.30
2023-02-06T03:07:36.040Z,14.55
2023-02-06T03:10:22.418Z,15.27
2023-02-06T03:13:08.203Z,14.35
2023-02-06T03:16:05.596Z,15.02
2023-02-06T03:18:43.307Z,15.88
2023-02-06T03:21:15.358Z,18.52
2023-02-06T03:23:45.516Z,16.50
2023-02-06T03:26:16.158Z,19.33
2023-02-06T03:28:50.021Z,18.55
2023-02-06T03:31:26.506Z,17.73
2023-02-06T03:34:02.028Z,17.20
2023-02-06T03:36:29.371Z,20.85
2023-02-06T03:38:56.282Z,19.33
2023-02-06T03:41:29.421Z,19.77
2023-02-06T03:43:58.413Z,21.48
2023-02-06T03:46:28.821Z,22.17
2023-02-06T03:48:59.956Z,22.35
2023-02-06T03:51:36.881Z,21.92
2023-02-06T03:54:05.957Z,25.25
2023-02-06T03:56:51.746Z,25.23
2023-02-06T03:59:18.663Z,25.10
2023-02-06T04:01:50.584Z,27.83
2023-02-06T04:04:28.944Z,27.60
2023-02-06T04:07:02.881Z,30.17
2023-02-06T04:09:29.718Z,30.10
2023-02-06T04:11:56.566Z,32.05
2023-02-06T04:14:23.461Z,34.75
2023-02-06T04:16:50.396Z,28.83
2023-02-06T04:19:17.222Z,34.60
2023-02-06T04:21:44.169Z,34.03
2023-02-06T04:24:11.478Z,39.05
2023-02-06T04:26:38.298Z,36.03
2023-02-06T04:29:05.194Z,41.10
2023-02-06T04:31:32.771Z,45.50
2023-02-06T04:33:59.628Z,45.08
2023-02-06T04:36:26.444Z,41.10
2023-02-06T04:38:53.304Z,41.95
2023-02-06T04:41:20.120Z,38.88
2023-02-06T04:43:46.941Z,38.72
2023-02-06T04:46:13.947Z,36.20
2023-02-06T04:48:41.078Z,39.47
2023-02-06T04:51:08.042Z,41.17
2023-02-06T04:53:35.051Z,39.78
2023-02-06T04:56:03.653Z,41.20
2023-02-06T04:58:30.694Z,40.22
2023-02-06T05:00:57.568Z,43.22
2023-02-06T05:03:25.396Z,50.90
2023-02-06T05:05:52.866Z,44.38
2023-02-06T05:08:20.009Z,42.90
2023-02-06T05:10:46.856Z,39.67
2023-02-06T05:13:13.717Z,40.88
2023-02-06T05:15:40.585Z,44.58
2023-02-06T05:18:07.414Z,47.20
2023-02-06T05:20:34.287Z,40.53
2023-02-06T05:23:01.289Z,39.72
2023-02-06T05:25:28.227Z,41.90
2023-02-06T05:27:55.343Z,41.80
2023-02-06T05:30:22.567Z,40.17
2023-02-06T05:32:49.395Z,43.60
2023-02-06T05:35:16.459Z,40.97
2023-02-06T05:37:43.470Z,48.83
2023-02-06T05:40:10.962Z,44.70
2023-02-06T05:42:37.887Z,52.03
2023-02-06T05:45:05.113Z,51.75
2023-02-06T05:47:31.934Z,42.85
2023-02-06T05:49:58.746Z,45.90
2023-02-06T05:52:25.620Z,43.80
2023-02-06T05:54:52.502Z,43.05
2023-02-06T05:57:19.558Z,51.65
2023-02-06T05:59:46.377Z,44.97
2023-02-06T06:02:13.252Z,50.00
2023-02-06T06:04:40.166Z,37.50
2023-02-06T06:07:07.525Z,45.95
2023-02-06T06:09:34.558Z,51.58
2023-02-06T06:12:01.395Z,55.35
2023-02-06T06:14:29.897Z,55.00
2023-02-06T06:16:56.762Z,52.35
2023-02-06T06:19:23.665Z,49.88
2023-02-06T06:21:50.721Z,54.42
2023-02-06T06:24:17.635Z,55.25
2023-02-06T06:26:44.413Z,46.42
2023-02-06T06:29:11.257Z,48.65
2023-02-06T06:31:38.520Z,56.20
2023-02-06T06:34:05.380Z,51.28
2023-02-06T06:36:32.556Z,50.00
2023-02-06T06:38:59.381Z,47.40
2023-02-06T06:41:26.185Z,53.13
2023-02-06T06:43:56.653Z,48.47
2023-02-06T06:46:23.881Z,56.65
2023-02-06T06:48:50.806Z,49.25
2023-02-06T06:51:17.737Z,48.55
2023-02-06T06:53:44.644Z,50.05
2023-02-06T06:56:13.594Z,58.63
2023-02-06T06:58:41.679Z,53.35
2023-02-06T07:01:09.215Z,54.63
2023-02-06T07:03:36.752Z,54.75
2023-02-06T07:06:04.899Z,58.30
2023-02-06T07:08:32.147Z,54.58
2023-02-06T07:10:59.245Z,55.20
2023-02-06T07:13:26.220Z,63.10
2023-02-06T07:15:53.026Z,53.63
2023-02-06T07:18:19.843Z,60.58
2023-02-06T07:20:46.714Z,65.28
2023-02-06T07:23:13.547Z,68.15
2023-02-06T07:25:40.394Z,65.18
2023-02-06T07:28:07.346Z,55.35
2023-02-06T07:30:34.397Z,60.25
2023-02-06T07:33:01.267Z,58.28
2023-02-06T07:35:28.094Z,56.97
2023-02-06T07:37:55.195Z,57.97
2023-02-06T07:40:23.043Z,62.78
2023-02-06T07:42:50.006Z,58.83
2023-02-06T07:45:17.342Z,51.40
2023-02-06T07:47:44.298Z,62.47
2023-02-06T07:50:11.914Z,71.95
2023-02-06T07:52:38.904Z,88.45
2023-02-06T07:55:06.493Z,81.15
2023-02-06T07:57:33.325Z,82.85
2023-02-06T08:00:00.177Z,109.03
2023-02-06T08:02:27.045Z,93.72
2023-02-06T08:04:54.489Z,106.03
2023-02-06T08:07:21.420Z,92.90
2023-02-06T08:09:48.325Z,106.10
2023-02-06T08:12:15.426Z,113.97
2023-02-06T08:14:45.809Z,99.28
2023-02-06T08:17:13.753Z,135.98
2023-02-06T08:19:40.701Z,113.68
2023-02-06T08:22:07.668Z,131.48
2023-02-06T08:24:34.538Z,130.05
2023-02-06T08:27:01.460Z,153.60
2023-02-06T08:29:28.276Z,147.75
2023-02-06T08:31:55.130Z,168.25
2023-02-06T08:34:21.960Z,150.18
2023-02-06T08:36:48.812Z,150.15
2023-02-06T08:39:15.968Z,165.20
2023-02-06T08:41:44.518Z,173.10
2023-02-06T08:44:16.542Z,180.55
2023-02-06T08:46:45.367Z,195.40
2023-02-06T08:49:21.046Z,173.73
2023-02-06T08:51:50.252Z,174.48
2023-02-06T08:54:20.269Z,172.43
2023-02-06T08:56:47.708Z,164.23
2023-02-06T08:59:16.478Z,153.60
2023-02-06T09:01:45.590Z,154.13
2023-02-06T09:04:14.117Z,156.52
2023-02-06T09:06:43.714Z,165.40
2023-02-06T09:09:12.147Z,147.40
2023-02-06T09:11:40.087Z,144.43
2023-02-06T09:14:11.087Z,160.57
2023-02-06T09:16:38.099Z,161.85
2023-02-06T09:19:06.521Z,145.75
2023-02-06T09:21:35.525Z,151.65
2023-02-06T09:24:05.537Z,150.52
2023-02-06T09:26:38.905Z,155.07
2023-02-06T09:29:09.543Z,140.32
2023-02-06T09:31:38.764Z,135.30
2023-02-06T09:34:06.716Z,141.05
2023-02-06T09:36:35.162Z,145.13
2023-02-06T09:39:05.908Z,153.88
2023-02-06T09:41:45.228Z,140.88
2023-02-06T09:44:27.824Z,140.18
2023-02-06T09:46:59.698Z,154.03
2023-02-06T09:49:50.134Z,146.90
2023-02-06T09:52:19.691Z,137.43
2023-02-06T09:55:18.228Z,136.52
2023-02-06T09:57:57.576Z,134.70
2023-02-06T10:00:40.288Z,127.88
2023-02-06T10:03:16.013Z,129.50
2023-02-06T10:06:06.860Z,136.75
2023-02-06T10:08:42.099Z,139.32
2023-02-06T10:11:19.740Z,131.93
2023-02-06T10:13:54.177Z,123.53
2023-02-06T10:16:40.343Z,122.85
2023-02-06T10:19:30.130Z,116.53
2023-02-06T10:22:09.576Z,121.03
2023-02-06T10:25:13.646Z,111.90
2023-02-06T10:27:44.333Z,106.38
2023-02-06T10:30:17.746Z,105.47
2023-02-06T10:32:44.654Z,125.13
2023-02-06T10:35:17.467Z,147.13
2023-02-06T10:38:12.462Z,123.90
2023-02-06T10:41:08.636Z,131.75
2023-02-06T10:43:55.224Z,108.07
2023-02-06T10:46:28.470Z,111.18
2023-02-06T10:49:05.020Z,111.45
2023-02-06T10:51:44.708Z,107.30
2023-02-06T10:54:20.778Z,108.00
2023-02-06T10:56:49.453Z,107.00
2023-02-06T10:59:25.266Z,111.68
2023-02-06T11:02:14.617Z,117.45
2023-02-06T11:05:10.494Z,107.50
2023-02-06T11:07:39.713Z,103.75
2023-02-06T11:10:08.209Z,102.15
2023-02-06T11:12:41.669Z,108.47
2023-02-06T11:15:35.725Z,109.60
2023-02-06T11:18:06.073Z,110.32
2023-02-06T11:20:36.846Z,118.82
2023-02-06T11:23:25.213Z,106.28
2023-02-06T11:26:19.713Z,101.07
2023-02-06T11:28:58.760Z,97.20
2023-02-06T11:31:57.078Z,94.68
2023-02-06T11:34:31.207Z,96.93
2023-02-06T11:37:05.064Z,99.40
2023-02-06T11:39:35.320Z,98.50
2023-02-06T11:42:15.441Z,95.97
2023-02-06T11:44:43.851Z,90.57
2023-02-06T11:47:31.422Z,86.47
2023-02-06T11:50:13.403Z,84.47
2023-02-06T11:52:42.865Z,83.63
2023-02-06T11:55:26.825Z,86.53
2023-02-06T11:58:11.774Z,77.93
2023-02-06T12:00:40.828Z,79.35
2023-02-06T12:03:39.829Z,73.80
2023-02-06T12:06:14.882Z,64.25
2023-02-06T12:08:56.180Z,74.22
2023-02-06T12:11:37.077Z,72.35
2023-02-06T12:14:24.814Z,75.88
2023-02-06T12:16:52.649Z,76.07
2023-02-06T12:19:31.709Z,74.05
2023-02-06T12:22:05.011Z,70.70
2023-02-06T12:24:36.023Z,70.38
2023-02-06T12:27:21.045Z,71.07
2023-02-06T12:29:59.099Z,66.68
2023-02-06T12:32:50.155Z,72.50
2023-02-06T12:35:46.469Z,74.20
2023-02-06T12:38:33.040Z,74.00
2023-02-06T12:41:11.977Z,78.38
2023-02-06T12:43:40.522Z,76.18
2023-02-06T12:46:19.570Z,87.00
2023-02-06T12:48:53.840Z,83.15
2023-02-06T12:51:28.898Z,83.97
2023-02-06T12:54:00.906Z,69.30
2023-02-06T12:56:49.252Z,82.45
2023-02-06T12:59:30.676Z,80.25
2023-02-06T13:02:10.793Z,79.40
2023-02-06T13:04:37.985Z,68.50
2023-02-06T13:07:06.473Z,73.15
2023-02-06T13:09:36.989Z,78.30
2023-02-06T13:12:24.471Z,74.70
2023-02-06T13:15:03.662Z,74.13
2023-02-06T13:17:40.212Z,65.30
2023-02-06T13:20:12.408Z,66.80
2023-02-06T13:22:46.802Z,70.50
2023-02-06T13:25:25.675Z,71.38
2023-02-06T13:27:53.656Z,66.78
2023-02-06T13:30:29.880Z,61.78
2023-02-06T13:33:20.929Z,61.63
2023-02-06T13:36:14.566Z,51.05
2023-02-06T13:41:15.491Z,54.28
2023-02-06T13:46:51.987Z,49.97
2023-02-06T13:49:41.915Z,50.25
2023-02-06T13:52:18.588Z,47.80
2023-02-06T13:54:55.905Z,45.92
2023-02-06T13:57:31.773Z,52.63
2023-02-06T14:00:12.568Z,51.78
2023-02-06T14:02:42.519Z,46.63
2023-02-06T14:05:19.164Z,53.85
2023-02-06T14:08:04.776Z,54.28
2023-02-06T14:10:40.318Z,58.72
2023-02-06T14:13:40.736Z,57.88
2023-02-06T14:16:30.520Z,54.58
2023-02-06T14:19:18.461Z,54.80
2023-02-06T14:22:26.842Z,52.88
2023-02-06T14:25:05.427Z,54.85
2023-02-06T14:27:39.449Z,56.53
2023-02-06T14:30:20.058Z,50.10
2023-02-06T14:33:10.854Z,52.45
2023-02-06T14:35:50.749Z,50.60
2023-02-06T14:38:52.572Z,59.45
2023-02-06T14:41:19.927Z,53.25
2023-02-06T14:43:48.766Z,52.58
2023-02-06T14:46:18.341Z,53.83
2023-02-06T14:48:53.403Z,51.90
2023-02-06T14:51:34.115Z,52.92
2023-02-06T14:54:32.095Z,49.17
2023-02-06T14:57:01.466Z,52.22
2023-02-06T14:59:29.410Z,51.17
2023-02-06T15:01:57.642Z,48.95
2023-02-06T15:04:28.461Z,49.40
2023-02-06T15:07:04.245Z,50.70
2023-02-06T15:09:36.449Z,45.42
2023-02-06T15:12:23.946Z,53.47
2023-02-06T15:15:18.911Z,99.25
2023-02-06T15:18:04.962Z,55.05
2023-02-06T15:20:40.307Z,52.22
2023-02-06T15:23:21.836Z,58.83
2023-02-06T15:26:03.018Z,57.35
2023-02-06T15:28:33.899Z,62.67
2023-02-06T15:31:01.899Z,55.15
2023-02-06T15:33:31.977Z,58.65
2023-02-06T15:36:01.758Z,59.80
2023-02-06T15:38:31.332Z,55.90
2023-02-06T15:41:07.442Z,67.15
2023-02-06T15:43:35.603Z,61.97
2023-02-06T15:46:04.457Z,65.43
2023-02-06T15:48:43.652Z,70.05
2023-02-06T15:51:25.538Z,78.70
2023-02-06T15:54:15.570Z,71.45
2023-02-06T15:56:47.104Z,64.35
2023-02-06T15:59:24.252Z,69.78
2023-02-06T16:01:54.318Z,71.63
2023-02-06T16:04:39.760Z,79.57
2023-02-06T16:07:19.937Z,77.75
2023-02-06T16:10:14.280Z,77.68
2023-02-06T16:12:43.449Z,80.85
2023-02-06T16:15:28.609Z,77.15
2023-02-06T16:17:56.305Z,77.72
2023-02-06T16:20:32.808Z,72.25
2023-02-06T16:23:18.335Z,73.03
2023-02-06T16:25:47.530Z,72.97
2023-02-06T16:28:27.198Z,78.47
2023-02-06T16:30:57.614Z,84.32
2023-02-06T16:33:44.840Z,73.70
2023-02-06T16:36:14.044Z,77.85
2023-02-06T16:38:43.156Z,74.13
2023-02-06T16:41:31.772Z,75.75
2023-02-06T16:43:59.725Z,88.88
2023-02-06T16:46:27.963Z,91.18
2023-02-06T16:48:55.590Z,106.15
2023-02-06T16:51:25.903Z,109.55
2023-02-06T16:53:53.215Z,122.15
2023-02-06T16:56:21.386Z,137.25
2023-02-06T16:58:48.990Z,137.18
2023-02-06T17:01:25.769Z,127.47
2023-02-06T17:03:53.737Z,123.57
2023-02-06T17:06:27.442Z,130.57
2023-02-06T17:09:02.062Z,115.30
2023-02-06T17:11:29.708Z,106.72
2023-02-06T17:13:56.847Z,100.93
2023-02-06T17:16:25.883Z,152.88
2023-02-06T17:18:54.145Z,106.35
2023-02-06T17:21:23.660Z,123.03
2023-02-06T17:23:51.644Z,115.50
2023-02-06T17:26:23.317Z,120.90
2023-02-06T17:28:50.912Z,133.52
2023-02-06T17:31:18.798Z,137.48
2023-02-06T17:33:45.804Z,140.65
2023-02-06T17:36:32.714Z,148.60
2023-02-06T17:39:00.331Z,150.07
2023-02-06T17:41:28.227Z,160.30
2023-02-06T17:43:55.123Z,170.10
2023-02-06T17:46:22.123Z,162.35
2023-02-06T17:48:49.425Z,157.65
2023-02-06T17:51:16.298Z,169.93
2023-02-06T17:53:43.218Z,180.18
2023-02-06T17:56:13.008Z,171.05
2023-02-06T17:58:43.562Z,173.90
2023-02-06T18:01:12.725Z,164.07
2023-02-06T18:03:40.669Z,171.93
2023-02-06T18:06:08.083Z,155.88
2023-02-06T18:08:35.236Z,177.50
2023-02-06T18:11:12.053Z,170.77
2023-02-06T18:13:39.948Z,166.98
2023-02-06T18:16:07.945Z,171.88
2023-02-06T18:18:34.980Z,176.90
2023-02-06T18:21:02.724Z,219.32
2023-02-06T18:23:30.025Z,199.65
2023-02-06T18:26:05.691Z,189.13
2023-02-06T18:28:33.334Z,187.50
2023-02-06T18:31:03.345Z,200.57
2023-02-06T18:33:32.707Z,185.68
2023-02-06T18:36:05.463Z,176.48
2023-02-06T18:38:32.640Z,181.48
2023-02-06T18:41:06.503Z,183.63
2023-02-06T18:43:33.790Z,168.75
2023-02-06T18:46:07.390Z,173.43
2023-02-06T18:48:34.319Z,162.80
2023-02-06T18:51:06.266Z,179.68
2023-02-06T18:53:33.081Z,164.40
2023-02-06T18:56:04.155Z,154.10
2023-02-06T18:58:31.037Z,160.02
2023-02-06T19:00:57.930Z,174.07
2023-02-06T19:03:24.811Z,153.55
2023-02-06T19:05:51.647Z,165.85
2023-02-06T19:08:19.832Z,163.32
2023-02-06T19:10:46.680Z,155.85
2023-02-06T19:13:13.531Z,157.40
2023-02-06T19:15:43.390Z,161.77
2023-02-06T19:18:10.852Z,162.07
2023-02-06T19:20:41.696Z,165.77
2023-02-06T19:23:08.635Z,175.48
2023-02-06T19:25:35.530Z,166.90
2023-02-06T19:28:02.557Z,172.98
2023-02-06T19:30:29.396Z,163.00
2023-02-06T19:32:56.578Z,168.32
2023-02-06T19:35:23.551Z,157.70
2023-02-06T19:37:51.852Z,142.18
2023-02-06T19:40:18.902Z,149.77
2023-02-06T19:42:45.754Z,144.38
2023-02-06T19:45:12.596Z,142.65
2023-02-06T19:47:39.752Z,137.70
2023-02-06T19:50:07.119Z,129.93
2023-02-06T19:52:35.268Z,136.32
2023-02-06T19:55:03.092Z,139.05
2023-02-06T19:57:30.096Z,134.13
2023-02-06T19:59:56.954Z,132.35
2023-02-06T20:02:23.833Z,137.48
2023-02-06T20:04:50.694Z,140.82
2023-02-06T20:07:17.564Z,143.02
2023-02-06T20:09:44.638Z,140.80
2023-02-06T20:12:12.668Z,141.40
2023-02-06T20:14:39.925Z,144.57
2023-02-06T20:17:06.872Z,154.40
2023-02-06T20:19:33.739Z,151.45
2023-02-06T20:22:00.995Z,152.48
2023-02-06T20:24:30.582Z,135.95
2023-02-06T20:27:00.748Z,142.30
2023-02-06T20:29:34.392Z,132.68
2023-02-06T20:32:02.042Z,142.40
2023-02-06T20:34:29.754Z,144.30
2023-02-06T20:36:56.733Z,150.18
2023-02-06T20:39:25.214Z,137.45
2023-02-06T20:41:52.473Z,137.95
2023-02-06T20:44:20.592Z,143.45
2023-02-06T20:46:47.761Z,152.88
2023-02-06T20:49:24.379Z,124.50
2023-02-06T20:51:52.344Z,134.48
2023-02-06T20:54:20.780Z,122.55
2023-02-06T20:56:48.025Z,126.22
2023-02-06T20:59:16.963Z,132.45
2023-02-06T21:01:44.164Z,129.32
2023-02-06T21:04:13.197Z,128.13
2023-02-06T21:06:40.708Z,117.63
2023-02-06T21:09:09.492Z,118.90
2023-02-06T21:11:41.007Z,120.93
2023-02-06T21:14:12.340Z,118.55
2023-02-06T21:16:49.713Z,117.20
2023-02-06T21:19:19.470Z,139.23
2023-02-06T21:21:47.149Z,127.70
2023-02-06T21:24:15.467Z,127.55
2023-02-06T21:26:43.187Z,136.45
2023-02-06T21:29:12.301Z,124.88
2023-02-06T21:31:39.449Z,128.13
2023-02-06T21:34:19.058Z,115.18
2023-02-06T21:36:46.522Z,119.88
2023-02-06T21:39:20.105Z,123.28
2023-02-06T21:41:51.624Z,124.28
2023-02-06T21:44:18.572Z,114.05
2023-02-06T21:46:45.509Z,117.78
2023-02-06T21:49:13.515Z,134.68
2023-02-06T21:51:40.498Z,115.65
2023-02-06T21:54:08.639Z,111.65
2023-02-06T21:56:38.604Z,117.22
2023-02-06T21:59:06.402Z,115.80
2023-02-06T22:01:34.138Z,120.25
2023-02-06T22:04:02.850Z,117.40
2023-02-06T22:06:30.100Z,114.97
2023-02-06T22:09:04.530Z,104.88
2023-02-06T22:11:32.253Z,113.18
2023-02-06T22:14:01.912Z,104.30
2023-02-06T22:16:29.539Z,113.57
2023-02-06T22:18:57.495Z,114.50
2023-02-06T22:21:27.601Z,113.13
2023-02-06T22:23:58.305Z,125.68
2023-02-06T22:26:26.555Z,114.82
2023-02-06T22:28:53.562Z,117.88
2023-02-06T22:31:22.773Z,112.95
2023-02-06T22:33:51.051Z,112.55
2023-02-06T22:36:20.678Z,116.78
2023-02-06T22:38:52.159Z,107.68
2023-02-06T22:41:19.118Z,106.25
2023-02-06T22:43:48.476Z,106.95
2023-02-06T22:46:25.765Z,110.80
2023-02-06T22:48:53.016Z,110.70
2023-02-06T22:51:20.289Z,107.97
2023-02-06T22:53:47.438Z,103.30
2023-02-06T22:56:31.232Z,105.93
2023-02-06T22:59:00.601Z,100.80
2023-02-06T23:01:31.926Z,102.05
2023-02-06T23:04:00.073Z,98.63
2023-02-06T23:06:29.731Z,97.50
2023-02-06T23:08:57.571Z,106.93
2023-02-06T23:11:25.039Z,105.72
2023-02-06T23:13:57.176Z,103.55
2023-02-06T23:16:25.110Z,108.72
2023-02-06T23:18:52.198Z,110.75
2023-02-06T23:21:21.651Z,102.97
2023-02-06T23:23:48.753Z,101.43
2023-02-06T23:26:17.945Z,102.30
2023-02-06T23:28:45.691Z,98.85
2023-02-06T23:31:13.119Z,95.88
2023-02-06T23:33:40.693Z,95.22
2023-02-06T23:36:15.892Z,102.80
2023-02-06T23:38:43.308Z,105.30
2023-02-06T23:41:18.386Z,94.95
2023-02-06T23:43:49.711Z,91.40
2023-02-06T23:46:17.351Z,99.95
2023-02-06T23:48:44.299Z,92.90
2023-02-06T23:51:11.129Z,94.25
2023-02-06T23:53:37.976Z,101.72
2023-02-06T23:56:17.015Z,100.47
2023-02-06T23:58:44.574Z,103.22
